createdAt,value
2018-06-04T00:00:22.348Z,64.08
2018-06-04T00:02:51.739Z,66.10
2018-06-04T00:05:21.589Z,64.49
2018-06-04T00:07:51.333Z,65.53
2018-06-04T00:10:21.006Z,64.44
2018-06-04T00:12:51.005Z,67.93
2018-06-04T00:15:20.704Z,69.14
2018-06-04T00:17:50.719Z,70.17
2018-06-04T00:20:20.629Z,69.54
2018-06-04T00:22:50.391Z,65.96
2018-06-04T00:25:20.029Z,69.03
2018-06-04T00:27:49.419Z,72.06
2018-06-04T00:30:19.009Z,73.70
2018-06-04T00:32:48.364Z,72.84
2018-06-04T00:35:18.103Z,72.39
2018-06-04T00:37:47.730Z,68.73
2018-06-04T00:40:17.520Z,66.40
2018-06-04T00:42:47.593Z,65.11
2018-06-04T00:45:17.154Z,64.29
2018-06-04T00:47:46.805Z,64.48
2018-06-04T00:50:16.174Z,63.94
2018-06-04T00:52:45.776Z,63.51
2018-06-04T00:55:15.528Z,64.36
2018-06-04T00:57:45.384Z,63.58
2018-06-04T01:00:14.712Z,63.34
2018-06-04T01:02:44.033Z,63.27
2018-06-04T01:05:13.669Z,65.83
2018-06-04T01:07:43.277Z,63.70
2018-06-04T01:10:13.069Z,63.55
2018-06-04T01:12:43.074Z,63.48
2018-06-04T01:15:13.192Z,63.31
2018-06-04T01:17:42.961Z,63.29
2018-06-04T01:20:12.326Z,63.24
2018-06-04T01:22:41.969Z,63.37
2018-06-04T01:25:11.591Z,63.32
2018-06-04T01:27:41.677Z,63.41
2018-06-04T01:30:11.225Z,63.39
2018-06-04T01:32:41.160Z,63.30
2018-06-04T01:35:10.919Z,63.02
2018-06-04T01:37:40.821Z,63.41
2018-06-04T01:40:10.426Z,63.12
2018-06-04T01:42:40.028Z,63.16
2018-06-04T01:45:09.707Z,63.32
2018-06-04T01:47:39.708Z,63.19
2018-06-04T01:50:11.061Z,62.96
2018-06-04T01:52:42.788Z,63.27
2018-06-04T01:55:12.882Z,63.30
2018-06-04T01:57:42.502Z,63.15
2018-06-04T02:00:11.865Z,63.44
2018-06-04T02:02:41.787Z,63.14
2018-06-04T02:05:11.393Z,63.11
2018-06-04T02:07:41.196Z,62.83
2018-06-04T02:10:11.142Z,64.92
2018-06-04T02:12:40.729Z,63.72
2018-06-04T02:15:10.674Z,66.57
2018-06-04T02:17:40.699Z,67.73
2018-06-04T02:20:10.018Z,66.91
2018-06-04T02:22:39.604Z,67.01
2018-06-04T02:25:09.617Z,64.32
2018-06-04T02:27:39.208Z,64.37
2018-06-04T02:30:08.823Z,64.33
2018-06-04T02:32:38.692Z,64.38
2018-06-04T02:35:08.336Z,64.09
2018-06-04T02:37:37.913Z,64.53
2018-06-04T02:40:07.884Z,64.29
2018-06-04T02:42:37.491Z,64.20
2018-06-04T02:45:06.978Z,63.94
2018-06-04T02:47:36.985Z,63.80
2018-06-04T02:50:06.617Z,64.35
2018-06-04T02:52:36.584Z,64.41
2018-06-04T02:55:06.566Z,64.19
2018-06-04T02:57:36.145Z,63.88
2018-06-04T03:00:05.917Z,64.33
2018-06-04T03:05:57.405Z,64.02
2018-06-04T03:08:27.063Z,64.49
2018-06-04T03:10:56.812Z,64.31
2018-06-04T03:13:26.655Z,63.97
2018-06-04T03:15:56.393Z,64.12
2018-06-04T03:18:25.826Z,64.20
2018-06-04T03:20:55.795Z,64.62
2018-06-04T03:23:25.349Z,64.26
2018-06-04T03:25:54.929Z,64.20
2018-06-04T03:28:24.938Z,64.14
2018-06-04T03:30:58.440Z,64.78
2018-06-04T03:33:28.458Z,64.50
2018-06-04T03:35:58.144Z,64.58
2018-06-04T03:38:27.804Z,64.41
2018-06-04T03:40:57.744Z,64.78
2018-06-04T03:43:27.416Z,64.16
2018-06-04T03:46:00.849Z,64.92
2018-06-04T03:48:30.871Z,65.48
2018-06-04T03:51:00.472Z,64.98
2018-06-04T03:53:30.127Z,64.91
2018-06-04T03:55:59.926Z,64.67
2018-06-04T03:58:29.560Z,64.57
2018-06-04T04:00:59.005Z,64.55
2018-06-04T04:03:28.988Z,64.77
2018-06-04T04:05:58.492Z,64.82
2018-06-04T04:08:28.019Z,64.48
2018-06-04T04:10:57.748Z,64.16
2018-06-04T04:13:27.422Z,64.42
2018-06-04T04:15:57.767Z,64.52
2018-06-04T04:18:27.502Z,63.73
2018-06-04T04:20:57.166Z,64.30
2018-06-04T04:23:27.340Z,64.11
2018-06-04T04:25:57.053Z,63.87
2018-06-04T04:28:26.717Z,64.28
2018-06-04T04:30:56.195Z,64.62
2018-06-04T04:33:25.733Z,65.46
2018-06-04T04:35:55.919Z,65.10
2018-06-04T04:38:25.681Z,64.94
2018-06-04T04:40:55.696Z,64.58
2018-06-04T04:43:25.355Z,63.62
2018-06-04T04:45:54.866Z,64.37
2018-06-04T04:48:24.550Z,64.36
2018-06-04T04:50:54.579Z,65.01
2018-06-04T04:53:24.688Z,64.74
2018-06-04T04:55:54.185Z,64.60
2018-06-04T04:58:23.496Z,64.77
2018-06-04T05:00:52.884Z,64.20
2018-06-04T05:03:22.473Z,64.14
2018-06-04T05:05:52.688Z,64.48
2018-06-04T05:08:22.220Z,64.36
2018-06-04T05:10:54.698Z,64.65
2018-06-04T05:13:24.884Z,64.96
2018-06-04T05:15:54.491Z,65.08
2018-06-04T05:18:28.144Z,64.57
2018-06-04T05:20:57.993Z,63.14
2018-06-04T05:23:28.399Z,64.21
2018-06-04T05:25:58.297Z,63.88
2018-06-04T05:28:31.159Z,63.86
2018-06-04T05:31:01.123Z,66.40
2018-06-04T05:33:30.855Z,69.40
2018-06-04T05:36:00.537Z,66.91
2018-06-04T05:38:30.157Z,67.71
2018-06-04T05:41:00.074Z,64.92
2018-06-04T05:43:29.960Z,63.85
2018-06-04T05:45:59.623Z,64.73
2018-06-04T05:48:29.434Z,62.81
2018-06-04T05:50:59.117Z,63.82
2018-06-04T05:53:28.861Z,62.15
2018-06-04T05:55:58.598Z,66.48
2018-06-04T05:58:27.920Z,66.31
2018-06-04T06:00:57.511Z,64.46
2018-06-04T06:03:26.949Z,66.81
2018-06-04T06:05:56.552Z,67.61
2018-06-04T06:08:26.178Z,68.03
2018-06-04T06:10:56.079Z,65.47
2018-06-04T06:13:25.513Z,68.07
2018-06-04T06:15:55.021Z,67.03
2018-06-04T06:18:25.089Z,67.34
2018-06-04T06:20:54.870Z,68.01
2018-06-04T06:23:24.840Z,67.75
2018-06-04T06:25:54.608Z,67.34
2018-06-04T06:28:24.244Z,66.20
2018-06-04T06:30:53.587Z,67.34
2018-06-04T06:33:23.411Z,66.82
2018-06-04T06:35:52.889Z,65.18
2018-06-04T06:38:22.200Z,61.59
2018-06-04T06:40:52.362Z,64.41
2018-06-04T06:43:21.728Z,65.21
2018-06-04T06:45:51.266Z,66.89
2018-06-04T06:48:21.244Z,64.58
2018-06-04T06:50:50.615Z,60.40
2018-06-04T06:53:20.792Z,60.68
2018-06-04T06:55:52.137Z,63.17
2018-06-04T06:58:23.327Z,64.12
2018-06-04T07:00:53.005Z,64.92
2018-06-04T07:03:22.813Z,63.70
2018-06-04T07:05:52.344Z,61.35
2018-06-04T07:08:21.720Z,57.46
2018-06-04T07:10:51.894Z,58.43
2018-06-04T07:13:21.372Z,54.87
2018-06-04T07:15:51.166Z,54.34
2018-06-04T07:18:21.217Z,54.53
2018-06-04T07:20:50.712Z,53.07
2018-06-04T07:23:20.045Z,53.44
2018-06-04T07:25:49.846Z,52.64
2018-06-04T07:28:19.196Z,56.87
2018-06-04T07:30:48.726Z,60.76
2018-06-04T07:33:18.410Z,60.11
2018-06-04T07:35:47.905Z,57.20
2018-06-04T07:38:17.327Z,56.03
2018-06-04T07:40:46.943Z,51.63
2018-06-04T07:43:16.644Z,56.33
2018-06-04T07:45:46.830Z,55.73
2018-06-04T07:48:16.196Z,53.38
2018-06-04T07:50:45.789Z,50.57
2018-06-04T07:53:15.421Z,55.42
2018-06-04T07:55:44.778Z,52.32
2018-06-04T07:58:14.111Z,54.07
2018-06-04T08:00:43.497Z,53.76
2018-06-04T08:03:12.984Z,50.71
2018-06-04T08:05:42.317Z,56.94
2018-06-04T08:08:11.707Z,55.54
2018-06-04T08:10:41.008Z,53.79
2018-06-04T08:13:10.323Z,48.75
2018-06-04T08:15:40.107Z,46.90
2018-06-04T08:18:09.753Z,49.31
2018-06-04T08:20:39.613Z,53.92
2018-06-04T08:23:11.505Z,48.73
2018-06-04T08:25:46.852Z,50.63
2018-06-04T08:28:17.078Z,45.54
2018-06-04T08:30:46.387Z,46.53
2018-06-04T08:33:15.991Z,45.96
2018-06-04T08:35:45.685Z,46.33
2018-06-04T08:38:15.513Z,44.70
2018-06-04T08:40:45.269Z,45.86
2018-06-04T08:43:14.844Z,48.96
2018-06-04T08:45:44.623Z,50.90
2018-06-04T08:48:14.777Z,49.11
2018-06-04T08:50:44.405Z,44.46
2018-06-04T08:53:14.175Z,45.92
2018-06-04T08:55:44.193Z,50.17
2018-06-04T08:58:13.661Z,49.31
2018-06-04T09:00:43.011Z,50.68
2018-06-04T09:03:12.682Z,48.94
2018-06-04T09:05:42.302Z,49.63
2018-06-04T09:08:12.060Z,46.01
2018-06-04T09:10:42.110Z,46.59
2018-06-04T09:13:11.695Z,45.57
2018-06-04T09:15:41.982Z,42.63
2018-06-04T09:18:12.090Z,48.73
2018-06-04T09:20:41.905Z,44.42
2018-06-04T09:23:11.327Z,45.34
2018-06-04T09:25:42.021Z,44.76
2018-06-04T09:28:11.649Z,43.27
2018-06-04T09:30:41.426Z,45.88
2018-06-04T09:33:11.322Z,42.61
2018-06-04T09:35:41.272Z,47.21
2018-06-04T09:38:10.648Z,45.28
2018-06-04T09:40:40.374Z,47.90
2018-06-04T09:43:10.062Z,47.67
2018-06-04T09:45:39.483Z,43.53
2018-06-04T09:48:09.492Z,39.53
2018-06-04T09:50:41.101Z,38.80
2018-06-04T09:53:10.785Z,44.19
2018-06-04T09:55:40.640Z,44.22
2018-06-04T09:58:10.006Z,44.47
2018-06-04T10:00:39.646Z,47.15
2018-06-04T10:03:09.749Z,45.96
2018-06-04T10:05:39.489Z,47.73
2018-06-04T10:08:08.852Z,46.34
2018-06-04T10:10:38.728Z,46.40
2018-06-04T10:13:08.429Z,46.49
2018-06-04T10:15:37.770Z,46.37
2018-06-04T10:18:07.446Z,47.14
2018-06-04T10:20:36.824Z,46.86
2018-06-04T10:23:06.428Z,48.68
2018-06-04T10:25:36.296Z,47.22
2018-06-04T10:28:05.760Z,45.25
2018-06-04T10:30:35.069Z,40.54
2018-06-04T10:33:04.660Z,39.33
2018-06-04T10:35:34.002Z,41.60
2018-06-04T10:38:03.572Z,41.14
2018-06-04T10:40:33.243Z,41.87
2018-06-04T10:43:02.973Z,38.12
2018-06-04T10:45:32.889Z,36.83
2018-06-04T10:48:02.513Z,36.01
2018-06-04T10:50:31.809Z,35.99
2018-06-04T10:53:01.294Z,40.81
2018-06-04T10:55:30.650Z,42.76
2018-06-04T10:58:00.650Z,42.79
2018-06-04T11:00:30.264Z,37.65
2018-06-04T11:02:59.896Z,42.10
2018-06-04T11:05:29.636Z,39.73
2018-06-04T11:07:59.292Z,39.69
2018-06-04T11:10:28.684Z,37.20
2018-06-04T11:12:58.044Z,37.41
2018-06-04T11:15:27.697Z,38.17
2018-06-04T11:17:57.386Z,35.42
2018-06-04T11:20:27.382Z,35.02
2018-06-04T11:22:57.475Z,36.14
2018-06-04T11:25:26.814Z,37.30
2018-06-04T11:27:56.467Z,37.47
2018-06-04T11:30:26.905Z,35.65
2018-06-04T11:32:56.825Z,35.86
2018-06-04T11:35:30.528Z,36.14
2018-06-04T11:38:00.537Z,36.69
2018-06-04T11:40:40.700Z,34.55
2018-06-04T11:43:10.209Z,35.47
2018-06-04T11:45:39.642Z,34.12
2018-06-04T11:48:09.366Z,33.52
2018-06-04T11:50:39.330Z,32.82
2018-06-04T11:53:13.516Z,36.44
2018-06-04T11:55:43.615Z,35.25
2018-06-04T11:58:13.810Z,34.89
2018-06-04T12:00:45.543Z,34.61
2018-06-04T12:03:15.131Z,37.97
2018-06-04T12:06:04.765Z,37.51
2018-06-04T12:08:38.425Z,37.16
2018-06-04T12:11:08.736Z,36.78
2018-06-04T12:13:39.470Z,35.33
2018-06-04T12:16:10.069Z,35.06
2018-06-04T12:18:39.772Z,34.92
2018-06-04T12:21:17.519Z,33.46
2018-06-04T12:23:52.156Z,34.37
2018-06-04T12:26:21.608Z,34.92
2018-06-04T12:28:52.431Z,34.48
2018-06-04T12:31:23.331Z,36.78
2018-06-04T12:33:53.058Z,37.07
2018-06-04T12:36:27.765Z,35.88
2018-06-04T12:39:01.038Z,35.79
2018-06-04T12:41:39.323Z,36.10
2018-06-04T12:44:10.896Z,35.47
2018-06-04T12:46:45.281Z,35.37
2018-06-04T12:49:14.902Z,36.00
2018-06-04T12:51:51.141Z,33.19
2018-06-04T12:54:21.494Z,34.90
2018-06-04T12:56:53.809Z,36.24
2018-06-04T12:59:23.552Z,36.04
2018-06-04T13:01:53.402Z,35.05
2018-06-04T13:04:23.338Z,32.48
2018-06-04T13:06:52.839Z,31.34
2018-06-04T13:09:22.752Z,31.32
2018-06-04T13:11:52.293Z,33.29
2018-06-04T13:14:22.724Z,34.07
2018-06-04T13:16:52.392Z,32.49
2018-06-04T13:19:22.173Z,31.59
2018-06-04T13:21:51.620Z,32.78
2018-06-04T13:24:21.492Z,31.32
2018-06-04T13:26:51.174Z,31.27
2018-06-04T13:29:20.713Z,34.11
2018-06-04T13:31:51.765Z,33.86
2018-06-04T13:34:22.067Z,32.35
2018-06-04T13:36:52.043Z,32.85
2018-06-04T13:39:22.527Z,32.99
2018-06-04T13:41:52.925Z,33.31
2018-06-04T13:44:23.474Z,33.38
2018-06-04T13:46:53.892Z,34.06
2018-06-04T13:49:24.470Z,33.43
2018-06-04T13:51:56.272Z,33.48
2018-06-04T13:54:27.394Z,31.65
2018-06-04T13:56:57.603Z,34.77
2018-06-04T13:59:28.037Z,34.69
2018-06-04T14:01:59.123Z,34.78
2018-06-04T14:04:29.335Z,35.41
2018-06-04T14:06:59.048Z,35.81
2018-06-04T14:09:29.084Z,33.27
2018-06-04T14:11:59.862Z,35.15
2018-06-04T14:14:31.492Z,35.24
2018-06-04T14:17:03.734Z,35.06
2018-06-04T14:19:37.949Z,36.03
2018-06-04T14:22:09.488Z,32.94
2018-06-04T14:24:39.809Z,31.98
2018-06-04T14:27:13.168Z,32.01
2018-06-04T14:29:44.113Z,32.05
2018-06-04T14:32:14.734Z,32.85
2018-06-04T14:34:46.012Z,33.44
2018-06-04T14:37:20.211Z,34.61
2018-06-04T14:39:50.835Z,35.60
2018-06-04T14:42:23.126Z,36.81
2018-06-04T14:44:53.601Z,36.60
2018-06-04T14:47:23.587Z,36.55
2018-06-04T14:49:53.435Z,35.72
2018-06-04T14:52:23.934Z,35.69
2018-06-04T14:54:53.600Z,36.50
2018-06-04T14:57:25.085Z,36.81
2018-06-04T14:59:55.725Z,36.30
2018-06-04T15:02:27.491Z,37.88
2018-06-04T15:04:57.264Z,36.47
2018-06-04T15:07:28.013Z,36.99
2018-06-04T15:09:59.247Z,37.37
2018-06-04T15:12:30.515Z,37.40
2018-06-04T15:15:00.473Z,37.46
2018-06-04T15:17:30.365Z,36.82
2018-06-04T15:20:00.957Z,35.76
2018-06-04T15:22:31.544Z,37.41
2018-06-04T15:25:03.951Z,37.42
2018-06-04T15:27:37.914Z,37.68
2018-06-04T15:30:08.429Z,38.12
2018-06-04T15:32:38.293Z,37.56
2018-06-04T15:35:08.202Z,38.09
2018-06-04T15:37:38.096Z,38.60
2018-06-04T15:40:07.681Z,36.60
2018-06-04T15:42:39.702Z,38.09
2018-06-04T15:45:10.889Z,38.60
2018-06-04T15:47:41.644Z,37.28
2018-06-04T15:50:16.138Z,37.20
2018-06-04T15:52:47.483Z,37.03
2018-06-04T15:55:17.100Z,37.58
2018-06-04T15:57:47.684Z,37.99
2018-06-04T16:00:27.965Z,38.46
2018-06-04T16:02:57.664Z,37.48
2018-06-04T16:05:28.019Z,37.49
2018-06-04T16:07:58.198Z,37.83
2018-06-04T16:10:27.794Z,38.00
2018-06-04T16:12:57.865Z,38.65
2018-06-04T16:15:28.496Z,39.22
2018-06-04T16:17:57.897Z,38.51
2018-06-04T16:20:27.930Z,38.40
2018-06-04T16:22:57.500Z,38.94
2018-06-04T16:25:27.050Z,38.38
2018-06-04T16:27:58.072Z,38.68
2018-06-04T16:30:31.333Z,39.48
2018-06-04T16:33:03.699Z,39.61
2018-06-04T16:35:34.267Z,40.49
2018-06-04T16:38:05.836Z,40.85
2018-06-04T16:40:35.555Z,41.42
2018-06-04T16:43:05.773Z,41.86
2018-06-04T16:45:38.668Z,42.74
2018-06-04T16:48:08.422Z,42.51
2018-06-04T16:50:40.445Z,43.07
2018-06-04T16:53:14.205Z,43.62
2018-06-04T16:55:50.183Z,44.09
2018-06-04T16:58:23.271Z,44.14
2018-06-04T17:00:53.235Z,44.14
2018-06-04T17:03:26.804Z,44.94
2018-06-04T17:05:57.826Z,44.26
2018-06-04T17:08:27.929Z,44.36
2018-06-04T17:10:57.810Z,44.40
2018-06-04T17:13:28.712Z,44.09
2018-06-04T17:15:58.336Z,44.06
2018-06-04T17:18:27.941Z,44.02
2018-06-04T17:21:02.334Z,43.82
2018-06-04T17:23:32.205Z,44.19
2018-06-04T17:26:02.111Z,43.98
2018-06-04T17:28:32.334Z,44.53
2018-06-04T17:31:02.042Z,45.31
2018-06-04T17:33:32.019Z,45.41
2018-06-04T17:36:02.397Z,45.76
2018-06-04T17:38:33.011Z,45.99
2018-06-04T17:41:02.528Z,46.74
2018-06-04T17:43:32.610Z,46.44
2018-06-04T17:46:03.664Z,46.21
2018-06-04T17:48:37.645Z,46.93
2018-06-04T17:51:13.286Z,47.71
2018-06-04T17:53:43.896Z,47.81
2018-06-04T17:56:13.666Z,47.63
2018-06-04T17:58:43.678Z,47.56
2018-06-04T18:01:13.292Z,47.91
2018-06-04T18:03:43.021Z,49.09
2018-06-04T18:06:12.488Z,49.52
2018-06-04T18:08:42.083Z,48.94
2018-06-04T18:11:12.089Z,49.77
2018-06-04T18:13:41.586Z,48.87
2018-06-04T18:16:12.171Z,50.00
2018-06-04T18:18:42.710Z,50.33
2018-06-04T18:21:13.972Z,49.88
2018-06-04T18:23:45.238Z,49.61
2018-06-04T18:26:17.809Z,50.01
2018-06-04T18:28:48.039Z,50.21
2018-06-04T18:31:18.029Z,50.05
2018-06-04T18:33:51.663Z,50.46
2018-06-04T18:36:22.363Z,51.16
2018-06-04T18:38:51.852Z,50.79
2018-06-04T18:41:21.300Z,51.24
2018-06-04T18:43:50.674Z,52.14
2018-06-04T18:46:20.326Z,52.75
2018-06-04T18:48:49.754Z,52.47
2018-06-04T18:51:19.522Z,52.05
2018-06-04T18:53:49.089Z,52.25
2018-06-04T18:56:19.753Z,52.66
2018-06-04T18:58:49.355Z,53.14
2018-06-04T19:01:20.160Z,53.01
2018-06-04T19:03:49.620Z,53.04
2018-06-04T19:06:24.671Z,52.76
2018-06-04T19:08:54.252Z,53.39
2018-06-04T19:11:23.789Z,53.01
2018-06-04T19:13:53.354Z,52.60
2018-06-04T19:16:23.743Z,52.89
2018-06-04T19:18:53.185Z,53.63
2018-06-04T19:21:22.957Z,53.53
2018-06-04T19:23:52.712Z,54.12
2018-06-04T19:26:22.348Z,54.46
2018-06-04T19:28:52.152Z,54.41
2018-06-04T19:31:22.022Z,54.60
2018-06-04T19:33:51.732Z,54.41
2018-06-04T19:36:21.832Z,53.00
2018-06-04T19:38:51.596Z,53.71
2018-06-04T19:41:22.358Z,52.75
2018-06-04T19:43:51.976Z,52.86
2018-06-04T19:46:21.615Z,53.26
2018-06-04T19:48:51.114Z,54.19
2018-06-04T19:51:21.725Z,52.78
2018-06-04T19:53:51.521Z,52.90
2018-06-04T19:56:21.151Z,52.26
2018-06-04T19:58:53.313Z,54.26
2018-06-04T20:01:22.807Z,54.62
2018-06-04T20:03:52.417Z,55.04
2018-06-04T20:06:22.233Z,55.32
2018-06-04T20:08:51.668Z,54.92
2018-06-04T20:11:20.991Z,55.05
2018-06-04T20:13:50.719Z,55.41
2018-06-04T20:16:20.304Z,55.42
2018-06-04T20:18:50.105Z,55.10
2018-06-04T20:21:20.484Z,55.04
2018-06-04T20:23:49.983Z,54.57
2018-06-04T20:26:19.674Z,55.76
2018-06-04T20:28:49.671Z,56.43
2018-06-04T20:31:19.378Z,56.47
2018-06-04T20:33:48.909Z,55.94
2018-06-04T20:36:19.433Z,56.10
2018-06-04T20:38:50.796Z,56.21
2018-06-04T20:41:21.003Z,56.51
2018-06-04T20:43:51.520Z,55.38
2018-06-04T20:46:21.243Z,55.79
2018-06-04T20:48:55.841Z,56.12
2018-06-04T20:51:26.485Z,56.57
2018-06-04T20:53:59.583Z,56.73
2018-06-04T20:56:31.436Z,56.31
2018-06-04T20:59:03.348Z,56.84
2018-06-04T21:01:32.953Z,57.25
2018-06-04T21:04:03.798Z,57.39
2018-06-04T21:06:34.209Z,57.53
2018-06-04T21:09:05.169Z,57.17
2018-06-04T21:11:36.057Z,57.06
2018-06-04T21:14:07.599Z,57.22
2018-06-04T21:16:38.153Z,57.86
2018-06-04T21:19:09.212Z,57.78
2018-06-04T21:21:38.933Z,58.22
2018-06-04T21:24:09.676Z,57.85
2018-06-04T21:26:40.363Z,57.78
2018-06-04T21:29:11.181Z,58.09
2018-06-04T21:31:42.623Z,58.18
2018-06-04T21:34:13.418Z,58.99
2018-06-04T21:36:43.369Z,59.16
2018-06-04T21:39:13.832Z,58.29
2018-06-04T21:41:44.951Z,58.08
2018-06-04T21:44:14.614Z,58.53
2018-06-04T21:46:44.641Z,58.44
2018-06-04T21:49:22.010Z,58.49
2018-06-04T21:51:52.192Z,58.93
2018-06-04T21:54:25.564Z,58.00
2018-06-04T21:56:56.991Z,58.65
2018-06-04T21:59:29.758Z,59.04
2018-06-04T22:02:03.674Z,59.48
2018-06-04T22:04:41.448Z,58.79
2018-06-04T22:07:13.101Z,58.31
2018-06-04T22:09:43.869Z,58.86
2018-06-04T22:12:15.615Z,57.16
2018-06-04T22:14:48.160Z,59.89
2018-06-04T22:17:17.973Z,60.52
2018-06-04T22:19:53.005Z,61.25
2018-06-04T22:22:22.461Z,61.54
2018-06-04T22:24:53.110Z,61.83
2018-06-04T22:27:23.109Z,62.16
2018-06-04T22:29:53.000Z,62.37
2018-06-04T22:32:22.704Z,62.80
2018-06-04T22:34:53.073Z,63.09
2018-06-04T22:37:23.205Z,63.31
2018-06-04T22:39:52.660Z,62.65
2018-06-04T22:42:22.778Z,62.93
2018-06-04T22:44:52.170Z,62.78
2018-06-04T22:47:21.577Z,62.83
2018-06-04T22:49:51.460Z,62.39
2018-06-04T22:52:20.836Z,62.05
2018-06-04T22:54:50.266Z,62.21
2018-06-04T22:57:21.017Z,61.77
2018-06-04T22:59:50.739Z,61.92
2018-06-04T23:02:21.639Z,59.84
2018-06-04T23:04:51.916Z,59.09
2018-06-04T23:07:21.727Z,61.25
2018-06-04T23:09:51.653Z,61.71
2018-06-04T23:12:22.306Z,62.40
2018-06-04T23:14:51.879Z,63.02
2018-06-04T23:17:21.540Z,63.05
2018-06-04T23:19:51.332Z,63.68
2018-06-04T23:22:20.788Z,62.71
2018-06-04T23:24:50.547Z,61.44
2018-06-04T23:27:20.229Z,60.36
2018-06-04T23:29:49.627Z,62.46
2018-06-04T23:32:19.173Z,64.09
2018-06-04T23:34:48.588Z,63.35
2018-06-04T23:37:18.228Z,64.67
2018-06-04T23:39:47.760Z,63.11
2018-06-04T23:42:17.386Z,62.51
2018-06-04T23:44:47.643Z,64.69
2018-06-04T23:47:16.988Z,65.10
2018-06-04T23:49:46.668Z,66.28
2018-06-04T23:52:16.420Z,66.42
2018-06-04T23:54:45.926Z,67.41
2018-06-04T23:57:15.551Z,67.36
2018-06-04T23:59:45.310Z,68.00
